createdAt,value
2018-04-24T00:02:28.059Z,11.70
2018-04-24T00:04:56.483Z,21.43
2018-04-24T00:07:25.132Z,14.13
2018-04-24T00:09:53.667Z,15.57
2018-04-24T00:12:21.992Z,18.60
2018-04-24T00:14:50.345Z,13.90
2018-04-24T00:17:19.541Z,9.97
2018-04-24T00:19:47.860Z,8.43
2018-04-24T00:22:16.360Z,15.70
2018-04-24T00:24:44.762Z,22.97
2018-04-24T00:27:13.252Z,11.87
2018-04-24T00:29:41.867Z,19.87
2018-04-24T00:32:10.943Z,15.10
2018-04-24T00:34:40.151Z,12.50
2018-04-24T00:37:09.277Z,13.17
2018-04-24T00:39:37.614Z,14.10
2018-04-24T00:42:05.940Z,16.37
2018-04-24T00:44:34.543Z,9.60
2018-04-24T00:47:02.847Z,33.97
2018-04-24T00:49:31.250Z,32.47
2018-04-24T00:52:00.100Z,14.43
2018-04-24T00:54:28.421Z,14.70
2018-04-24T00:56:56.751Z,12.00
2018-04-24T00:59:25.263Z,24.90
2018-04-24T01:01:54.444Z,18.93
2018-04-24T01:04:22.908Z,15.73
2018-04-24T01:06:51.636Z,18.13
2018-04-24T01:09:20.696Z,14.73
2018-04-24T01:11:49.022Z,13.70
2018-04-24T01:14:18.515Z,13.60
2018-04-24T01:16:47.628Z,16.57
2018-04-24T01:19:16.364Z,13.67
2018-04-24T01:21:44.720Z,14.00
2018-04-24T01:24:13.048Z,13.77
2018-04-24T01:26:41.345Z,15.73
2018-04-24T01:29:09.775Z,18.20
2018-04-24T01:31:58.657Z,19.40
2018-04-24T01:34:28.052Z,12.57
2018-04-24T01:36:56.380Z,17.43
2018-04-24T01:39:24.749Z,15.63
2018-04-24T01:41:53.143Z,19.40
2018-04-24T01:44:21.450Z,15.93
2018-04-24T01:46:49.820Z,19.50
2018-04-24T01:49:18.166Z,16.53
2018-04-24T01:51:46.512Z,14.30
2018-04-24T01:54:15.637Z,17.33
2018-04-24T01:56:44.170Z,17.07
2018-04-24T01:59:13.212Z,18.03
2018-04-24T02:01:41.529Z,13.70
2018-04-24T02:04:09.907Z,14.50
2018-04-24T02:06:38.323Z,21.80
2018-04-24T02:09:07.416Z,22.10
2018-04-24T02:11:35.755Z,11.03
2018-04-24T02:14:04.080Z,12.80
2018-04-24T02:16:33.187Z,16.00
2018-04-24T02:19:02.516Z,13.00
2018-04-24T02:21:30.875Z,14.33
2018-04-24T02:23:59.212Z,21.83
2018-04-24T02:26:27.932Z,17.23
2018-04-24T02:28:57.019Z,15.00
2018-04-24T02:31:26.135Z,18.00
2018-04-24T02:33:54.520Z,19.87
2018-04-24T02:36:22.873Z,19.40
2018-04-24T02:38:51.983Z,16.57
2018-04-24T02:41:20.546Z,22.13
2018-04-24T02:43:48.872Z,18.53
2018-04-24T02:46:17.204Z,20.07
2018-04-24T02:48:45.591Z,20.33
2018-04-24T02:51:14.035Z,15.60
2018-04-24T02:53:42.388Z,18.50
2018-04-24T02:56:10.777Z,23.37
2018-04-24T02:58:39.855Z,19.17
2018-04-24T03:01:08.187Z,11.20
2018-04-24T03:03:36.674Z,17.20
2018-04-24T03:06:05.020Z,15.80
2018-04-24T03:08:33.372Z,16.07
2018-04-24T03:11:01.735Z,16.00
2018-04-24T03:13:30.871Z,10.37
2018-04-24T03:15:59.974Z,16.80
2018-04-24T03:18:28.305Z,20.43
2018-04-24T03:20:57.398Z,13.70
2018-04-24T03:23:26.506Z,12.97
2018-04-24T03:25:55.491Z,11.90
2018-04-24T03:28:25.143Z,10.20
2018-04-24T03:30:53.483Z,9.77
2018-04-24T03:33:22.616Z,15.17
2018-04-24T03:35:50.963Z,14.23
2018-04-24T03:38:19.333Z,13.77
2018-04-24T03:40:48.460Z,10.57
2018-04-24T03:43:16.806Z,10.83
2018-04-24T03:45:45.900Z,8.87
2018-04-24T03:48:15.298Z,12.40
2018-04-24T03:50:44.404Z,23.90
2018-04-24T03:53:13.472Z,8.80
2018-04-24T03:55:41.803Z,15.70
2018-04-24T03:58:10.155Z,16.87
2018-04-24T04:00:39.240Z,25.63
2018-04-24T04:03:07.597Z,10.17
2018-04-24T04:05:35.942Z,12.70
2018-04-24T04:08:04.279Z,13.47
2018-04-24T04:10:33.606Z,14.43
2018-04-24T04:13:01.961Z,12.83
2018-04-24T04:15:31.043Z,14.97
2018-04-24T04:18:16.930Z,11.40
2018-04-24T04:21:02.889Z,8.47
2018-04-24T04:23:48.851Z,10.83
2018-04-24T04:26:17.203Z,9.90
2018-04-24T04:28:46.626Z,12.30
2018-04-24T04:31:15.432Z,19.43
2018-04-24T04:33:43.755Z,9.87
2018-04-24T04:36:12.069Z,9.93
2018-04-24T04:38:41.198Z,10.93
2018-04-24T04:41:09.537Z,9.57
2018-04-24T04:43:37.895Z,18.80
2018-04-24T04:46:06.268Z,15.07
2018-04-24T04:48:34.627Z,12.43
2018-04-24T04:51:02.955Z,14.43
2018-04-24T04:53:32.297Z,14.10
2018-04-24T04:56:00.663Z,22.23
2018-04-24T04:58:29.056Z,12.70
2018-04-24T05:00:57.471Z,18.93
2018-04-24T05:03:25.814Z,19.23
2018-04-24T05:05:54.187Z,18.20
2018-04-24T05:08:22.575Z,12.13
2018-04-24T05:10:50.913Z,14.73
2018-04-24T05:13:20.016Z,18.70
2018-04-24T05:15:48.470Z,21.70
2018-04-24T05:18:16.814Z,14.70
2018-04-24T05:20:45.199Z,17.30
2018-04-24T05:23:13.589Z,18.63
2018-04-24T05:25:41.909Z,18.40
2018-04-24T05:28:10.224Z,16.67
2018-04-24T05:30:38.821Z,18.03
2018-04-24T05:33:07.146Z,24.70
2018-04-24T05:35:35.505Z,24.83
2018-04-24T05:38:03.999Z,32.23
2018-04-24T05:40:32.329Z,25.20
2018-04-24T05:43:00.670Z,25.30
2018-04-24T05:45:29.890Z,17.97
2018-04-24T05:47:58.213Z,32.50
2018-04-24T05:50:26.560Z,18.80
2018-04-24T05:52:55.006Z,21.27
2018-04-24T05:55:23.282Z,14.67
2018-04-24T05:57:52.525Z,27.17
2018-04-24T06:00:21.163Z,16.80
2018-04-24T06:02:49.553Z,12.53
2018-04-24T06:05:17.883Z,18.10
2018-04-24T06:07:46.245Z,17.33
2018-04-24T06:10:14.608Z,22.67
2018-04-24T06:12:42.952Z,21.13
2018-04-24T06:15:11.397Z,26.87
2018-04-24T06:17:39.643Z,16.80
2018-04-24T06:20:07.967Z,17.30
2018-04-24T06:22:36.610Z,18.63
2018-04-24T06:25:05.730Z,23.93
2018-04-24T06:27:34.078Z,21.23
2018-04-24T06:30:02.507Z,20.60
2018-04-24T06:32:30.844Z,27.77
2018-04-24T06:34:59.215Z,15.87
2018-04-24T06:37:28.386Z,19.57
2018-04-24T06:39:56.722Z,25.80
2018-04-24T06:42:25.065Z,21.40
2018-04-24T06:44:54.683Z,19.40
2018-04-24T06:47:23.018Z,26.33
2018-04-24T06:49:51.364Z,19.13
2018-04-24T06:52:19.707Z,18.13
2018-04-24T06:54:48.806Z,30.70
2018-04-24T06:57:17.165Z,20.00
2018-04-24T06:59:46.342Z,31.27
2018-04-24T07:02:14.728Z,27.67
2018-04-24T07:04:43.089Z,23.77
2018-04-24T07:07:11.812Z,25.93
2018-04-24T07:09:40.172Z,24.90
2018-04-24T07:12:08.543Z,24.50
2018-04-24T07:14:36.899Z,31.87
2018-04-24T07:17:05.258Z,25.00
2018-04-24T07:19:33.621Z,38.77
2018-04-24T07:22:01.977Z,28.07
2018-04-24T07:24:30.403Z,20.77
2018-04-24T07:26:58.783Z,21.80
2018-04-24T07:29:27.362Z,25.17
2018-04-24T07:31:55.727Z,23.53
2018-04-24T07:34:24.826Z,20.27
2018-04-24T07:36:53.937Z,21.90
2018-04-24T07:39:22.301Z,30.27
2018-04-24T07:41:51.455Z,22.43
2018-04-24T07:44:19.876Z,23.87
2018-04-24T07:46:48.997Z,28.93
2018-04-24T07:49:17.317Z,29.33
2018-04-24T07:51:45.869Z,28.30
2018-04-24T07:54:14.245Z,28.33
2018-04-24T07:56:42.622Z,28.13
2018-04-24T07:59:11.037Z,30.03
2018-04-24T08:01:39.410Z,23.70
2018-04-24T08:04:07.938Z,24.57
2018-04-24T08:06:37.093Z,21.10
2018-04-24T08:09:08.209Z,20.07
2018-04-24T08:11:36.559Z,23.23
2018-04-24T08:14:06.209Z,25.53
2018-04-24T08:16:34.649Z,29.63
2018-04-24T08:19:02.943Z,25.07
2018-04-24T08:21:31.335Z,27.77
2018-04-24T08:23:59.680Z,27.23
2018-04-24T08:26:28.768Z,23.70
2018-04-24T08:28:57.144Z,23.17
2018-04-24T08:31:25.832Z,23.33
2018-04-24T08:33:55.000Z,24.43
2018-04-24T08:36:23.724Z,28.60
2018-04-24T08:38:52.064Z,25.90
2018-04-24T08:41:20.431Z,30.70
2018-04-24T08:43:48.820Z,22.17
2018-04-24T08:46:17.174Z,23.43
2018-04-24T08:48:45.503Z,18.60
2018-04-24T08:51:13.888Z,23.83
2018-04-24T08:53:42.250Z,19.10
2018-04-24T08:56:10.606Z,30.60
2018-04-24T08:58:39.265Z,24.43
2018-04-24T09:01:07.689Z,21.17
2018-04-24T09:03:36.040Z,23.57
2018-04-24T09:06:04.462Z,24.03
2018-04-24T09:08:32.853Z,25.23
2018-04-24T09:11:01.201Z,18.43
2018-04-24T09:13:30.336Z,21.00
2018-04-24T09:15:58.682Z,20.53
2018-04-24T09:18:27.000Z,22.07
2018-04-24T09:20:56.609Z,17.43
2018-04-24T09:23:25.135Z,18.53
2018-04-24T09:25:53.483Z,18.70
2018-04-24T09:28:21.899Z,20.70
2018-04-24T09:30:51.004Z,16.63
2018-04-24T09:33:19.464Z,17.73
2018-04-24T09:35:47.846Z,17.63
2018-04-24T09:38:16.231Z,21.63
2018-04-24T09:40:44.601Z,19.27
2018-04-24T09:43:13.165Z,22.90
2018-04-24T09:45:41.532Z,34.53
2018-04-24T09:48:10.656Z,30.23
2018-04-24T09:50:39.048Z,17.83
2018-04-24T09:53:07.386Z,17.50
2018-04-24T09:55:36.501Z,19.10
2018-04-24T09:58:04.863Z,15.10
2018-04-24T10:00:37.036Z,22.73
2018-04-24T10:03:06.358Z,31.20
2018-04-24T10:05:34.719Z,14.90
2018-04-24T10:08:03.801Z,32.33
2018-04-24T10:10:32.939Z,14.40
2018-04-24T10:13:01.310Z,13.93
2018-04-24T10:15:30.403Z,14.90
2018-04-24T10:17:58.788Z,17.53
2018-04-24T10:20:27.149Z,18.77
2018-04-24T10:22:55.580Z,14.27
2018-04-24T10:25:24.363Z,22.67
2018-04-24T10:27:52.664Z,16.60
2018-04-24T10:30:21.025Z,13.40
2018-04-24T10:32:50.179Z,19.60
2018-04-24T10:35:18.930Z,24.60
2018-04-24T10:37:47.356Z,14.60
2018-04-24T10:40:15.811Z,26.73
2018-04-24T10:42:44.103Z,18.97
2018-04-24T10:45:12.453Z,18.83
2018-04-24T10:47:41.099Z,15.20
2018-04-24T10:50:09.432Z,20.47
2018-04-24T10:52:38.560Z,25.33
2018-04-24T10:55:06.954Z,13.73
2018-04-24T10:57:35.294Z,19.10
2018-04-24T11:00:03.632Z,17.17
2018-04-24T11:02:32.016Z,22.70
2018-04-24T11:05:01.129Z,19.73
2018-04-24T11:07:29.460Z,22.73
2018-04-24T11:09:58.092Z,17.10
2018-04-24T11:12:27.282Z,18.23
2018-04-24T11:14:55.616Z,15.40
2018-04-24T11:17:24.070Z,18.67
2018-04-24T11:19:52.414Z,16.40
2018-04-24T11:22:20.724Z,18.87
2018-04-24T11:24:49.832Z,20.83
2018-04-24T11:27:18.936Z,23.87
2018-04-24T11:29:47.285Z,21.50
2018-04-24T11:32:15.886Z,20.33
2018-04-24T11:34:45.013Z,17.53
2018-04-24T11:37:13.339Z,19.00
2018-04-24T11:39:41.724Z,24.20
2018-04-24T11:42:10.823Z,22.73
2018-04-24T11:44:39.954Z,23.30
2018-04-24T11:47:08.318Z,28.60
2018-04-24T11:49:37.441Z,21.90
2018-04-24T11:52:05.779Z,26.00
2018-04-24T11:54:35.128Z,33.50
2018-04-24T11:57:04.313Z,20.30
2018-04-24T11:59:32.602Z,21.40
2018-04-24T12:02:00.980Z,25.80
2018-04-24T12:04:29.359Z,21.17
2018-04-24T12:06:57.706Z,20.67
2018-04-24T12:09:26.869Z,21.57
2018-04-24T12:11:55.264Z,20.93
2018-04-24T12:14:23.601Z,26.23
2018-04-24T12:16:52.256Z,23.17
2018-04-24T12:19:20.608Z,18.60
2018-04-24T12:21:48.926Z,35.33
2018-04-24T12:24:17.288Z,23.10
2018-04-24T12:26:46.392Z,31.13
2018-04-24T12:29:14.717Z,26.60
2018-04-24T12:31:43.121Z,23.27
2018-04-24T12:34:11.479Z,20.97
2018-04-24T12:36:39.845Z,26.80
2018-04-24T12:39:08.689Z,25.20
2018-04-24T12:41:37.046Z,23.33
2018-04-24T12:44:05.389Z,21.37
2018-04-24T12:46:33.803Z,20.37
2018-04-24T12:49:02.158Z,22.07
2018-04-24T12:51:30.466Z,24.33
2018-04-24T12:53:58.844Z,30.73
2018-04-24T12:56:27.187Z,24.47
2018-04-24T12:58:55.545Z,24.40
2018-04-24T13:01:24.220Z,29.50
2018-04-24T13:03:52.662Z,29.47
2018-04-24T13:06:20.938Z,24.47
2018-04-24T13:08:49.327Z,26.83
2018-04-24T13:11:18.447Z,26.53
2018-04-24T13:13:46.899Z,28.37
2018-04-24T13:16:15.283Z,29.37
2018-04-24T13:18:43.632Z,30.03
2018-04-24T13:21:11.995Z,29.60
2018-04-24T13:23:40.583Z,32.37
2018-04-24T13:26:09.036Z,29.33
2018-04-24T13:28:38.138Z,29.63
2018-04-24T13:31:06.519Z,28.50
2018-04-24T13:33:34.841Z,23.57
2018-04-24T13:36:03.193Z,24.07
2018-04-24T13:38:31.970Z,28.73
2018-04-24T13:41:00.301Z,25.17
2018-04-24T13:43:28.622Z,32.17
2018-04-24T13:45:57.141Z,36.57
2018-04-24T13:48:25.487Z,27.63
2018-04-24T13:50:53.816Z,32.40
2018-04-24T13:53:22.189Z,23.47
2018-04-24T13:55:50.525Z,22.87
2018-04-24T13:58:18.867Z,27.50
2018-04-24T14:00:47.310Z,21.40
2018-04-24T14:03:16.368Z,24.73
2018-04-24T14:05:45.482Z,30.83
2018-04-24T14:08:14.251Z,26.73
2018-04-24T14:10:43.352Z,27.83
2018-04-24T14:13:11.666Z,36.53
2018-04-24T14:15:40.038Z,26.03
2018-04-24T14:18:08.367Z,32.40
2018-04-24T14:20:36.710Z,26.03
2018-04-24T14:23:05.072Z,31.17
2018-04-24T14:25:33.446Z,23.70
2018-04-24T14:28:01.791Z,30.40
2018-04-24T14:30:31.141Z,24.97
2018-04-24T14:32:59.500Z,29.60
2018-04-24T14:35:27.868Z,24.90
2018-04-24T14:37:56.236Z,22.53
2018-04-24T14:40:25.632Z,28.50
2018-04-24T14:42:54.734Z,33.43
2018-04-24T14:45:23.868Z,25.20
2018-04-24T14:47:52.209Z,27.33
2018-04-24T14:50:20.545Z,26.23
2018-04-24T14:52:49.004Z,23.60
2018-04-24T14:55:17.367Z,28.37
2018-04-24T14:57:45.688Z,23.63
2018-04-24T15:00:14.043Z,29.53
2018-04-24T15:02:42.406Z,29.10
2018-04-24T15:05:10.779Z,44.17
2018-04-24T15:07:39.166Z,27.27
2018-04-24T15:10:07.496Z,19.80
2018-04-24T15:12:35.860Z,30.37
2018-04-24T15:15:04.714Z,32.20
2018-04-24T15:17:33.098Z,29.90
2018-04-24T15:20:01.434Z,28.00
2018-04-24T15:22:30.571Z,32.80
2018-04-24T15:24:58.928Z,30.30
2018-04-24T15:27:28.083Z,30.33
2018-04-24T15:29:56.464Z,29.97
2018-04-24T15:32:25.572Z,28.20
2018-04-24T15:34:53.989Z,42.13
2018-04-24T15:37:23.270Z,37.43
2018-04-24T15:39:52.379Z,32.83
2018-04-24T15:42:20.707Z,28.23
2018-04-24T15:44:49.081Z,29.30
2018-04-24T15:47:18.202Z,30.57
2018-04-24T15:49:46.545Z,26.87
2018-04-24T15:52:14.926Z,32.00
2018-04-24T15:54:43.254Z,30.53
2018-04-24T15:57:11.616Z,29.40
2018-04-24T15:59:40.421Z,30.30
2018-04-24T16:02:08.799Z,31.03
2018-04-24T16:04:37.110Z,34.80
2018-04-24T16:07:05.467Z,32.20
2018-04-24T16:09:33.840Z,23.27
2018-04-24T16:12:03.029Z,34.07
2018-04-24T16:14:31.439Z,30.70
2018-04-24T16:17:00.537Z,41.47
2018-04-24T16:19:28.955Z,40.43
2018-04-24T16:21:57.804Z,32.13
2018-04-24T16:24:26.179Z,31.37
2018-04-24T16:26:54.580Z,32.00
2018-04-24T16:29:23.023Z,34.73
2018-04-24T16:31:51.392Z,36.00
2018-04-24T16:34:19.728Z,35.50
2018-04-24T16:36:48.489Z,37.00
2018-04-24T16:39:16.828Z,33.13
2018-04-24T16:41:45.172Z,32.90
2018-04-24T16:44:13.735Z,31.20
2018-04-24T16:46:42.090Z,37.47
2018-04-24T16:49:10.426Z,33.87
2018-04-24T16:51:38.835Z,47.63
2018-04-24T16:54:07.143Z,37.10
2018-04-24T16:56:36.279Z,32.17
2018-04-24T16:59:04.679Z,42.60
2018-04-24T17:01:33.029Z,35.57
2018-04-24T17:04:01.477Z,32.10
2018-04-24T17:06:31.112Z,36.17
2018-04-24T17:08:59.463Z,32.50
2018-04-24T17:11:28.561Z,37.57
2018-04-24T17:13:57.690Z,33.30
2018-04-24T17:16:26.050Z,33.93
2018-04-24T17:18:54.409Z,32.40
2018-04-24T17:21:23.558Z,38.60
2018-04-24T17:23:51.911Z,34.50
2018-04-24T17:26:20.268Z,33.50
2018-04-24T17:28:48.856Z,33.30
2018-04-24T17:31:17.952Z,29.00
2018-04-24T17:33:46.316Z,36.07
2018-04-24T17:36:14.759Z,32.40
2018-04-24T17:38:43.075Z,34.50
2018-04-24T17:41:11.432Z,32.27
2018-04-24T17:43:39.942Z,28.93
2018-04-24T17:46:09.035Z,32.90
2018-04-24T17:48:38.173Z,37.80
2018-04-24T17:51:06.689Z,38.17
2018-04-24T17:53:35.081Z,39.33
2018-04-24T17:56:03.428Z,27.23
2018-04-24T17:58:32.801Z,30.60
2018-04-24T18:01:01.912Z,32.50
2018-04-24T18:03:30.262Z,33.30
2018-04-24T18:05:58.687Z,27.23
2018-04-24T18:08:27.028Z,33.70
2018-04-24T18:10:56.117Z,34.23
2018-04-24T18:13:24.846Z,35.57
2018-04-24T18:15:53.205Z,29.60
2018-04-24T18:18:21.529Z,35.03
2018-04-24T18:20:49.909Z,25.80
2018-04-24T18:23:18.213Z,36.93
2018-04-24T18:25:46.582Z,28.73
2018-04-24T18:28:14.973Z,33.80
2018-04-24T18:30:44.099Z,37.40
2018-04-24T18:33:12.501Z,28.90
2018-04-24T18:35:40.960Z,31.70
2018-04-24T18:38:09.328Z,33.73
2018-04-24T18:40:38.445Z,36.23
2018-04-24T18:43:06.812Z,47.20
2018-04-24T18:45:35.443Z,39.60
2018-04-24T18:48:03.800Z,34.50
2018-04-24T18:50:32.227Z,39.67
2018-04-24T18:53:00.564Z,36.40
2018-04-24T18:55:28.951Z,37.13
2018-04-24T18:57:57.466Z,37.53
2018-04-24T19:00:25.815Z,37.67
2018-04-24T19:02:54.153Z,39.30
2018-04-24T19:05:23.299Z,44.77
2018-04-24T19:07:51.711Z,43.53
2018-04-24T19:10:20.200Z,46.10
2018-04-24T19:12:49.346Z,39.53
2018-04-24T19:15:17.727Z,46.77
2018-04-24T19:17:46.073Z,39.80
2018-04-24T19:20:14.740Z,39.37
2018-04-24T19:22:43.840Z,31.63
2018-04-24T19:25:18.345Z,37.33
2018-04-24T19:27:46.707Z,45.33
2018-04-24T19:30:15.035Z,43.03
2018-04-24T19:32:43.450Z,44.50
2018-04-24T19:35:11.872Z,46.87
2018-04-24T19:37:40.242Z,43.27
2018-04-24T19:40:14.361Z,41.33
2018-04-24T19:42:42.702Z,37.03
2018-04-24T19:45:11.047Z,54.53
2018-04-24T19:47:39.433Z,47.07
2018-04-24T19:50:13.335Z,51.20
2018-04-24T19:52:41.751Z,44.27
2018-04-24T19:55:15.576Z,44.63
2018-04-24T19:57:44.135Z,38.40
2018-04-24T20:00:13.232Z,43.90
2018-04-24T20:02:41.636Z,48.03
2018-04-24T20:05:10.091Z,59.60
2018-04-24T20:07:38.497Z,70.33
2018-04-24T20:10:06.902Z,53.10
2018-04-24T20:12:36.085Z,48.03
2018-04-24T20:15:04.467Z,49.13
2018-04-24T20:17:32.887Z,41.73
2018-04-24T20:20:01.571Z,46.40
2018-04-24T20:22:30.725Z,43.70
2018-04-24T20:24:59.062Z,50.47
2018-04-24T20:27:27.423Z,46.63
2018-04-24T20:29:55.763Z,47.47
2018-04-24T20:32:24.242Z,48.87
2018-04-24T20:34:52.533Z,49.57
2018-04-24T20:37:20.912Z,54.07
2018-04-24T20:39:49.249Z,53.30
2018-04-24T20:42:17.715Z,45.20
2018-04-24T20:44:46.066Z,63.20
2018-04-24T20:47:15.274Z,51.07
2018-04-24T20:49:43.627Z,50.33
2018-04-24T20:52:12.005Z,62.43
2018-04-24T20:54:40.365Z,51.70
2018-04-24T20:57:08.745Z,54.07
2018-04-24T20:59:37.166Z,49.13
2018-04-24T21:02:05.526Z,61.20
2018-04-24T21:04:34.030Z,54.60
2018-04-24T21:07:02.372Z,52.60
2018-04-24T21:09:30.713Z,59.63
2018-04-24T21:11:59.066Z,53.60
2018-04-24T21:14:27.426Z,53.83
2018-04-24T21:16:55.802Z,52.07
2018-04-24T21:19:24.174Z,52.93
2018-04-24T21:21:53.336Z,51.00
2018-04-24T21:24:21.723Z,51.17
2018-04-24T21:26:50.256Z,41.30
2018-04-24T21:29:19.355Z,43.23
2018-04-24T21:31:49.364Z,38.97
2018-04-24T21:34:17.755Z,48.70
2018-04-24T21:36:46.899Z,40.90
2018-04-24T21:39:15.218Z,38.90
2018-04-24T21:41:43.580Z,32.77
2018-04-24T21:44:11.937Z,34.63
2018-04-24T21:46:40.287Z,35.67
2018-04-24T21:49:09.147Z,44.90
2018-04-24T21:51:37.490Z,29.00
2018-04-24T21:54:05.965Z,35.03
2018-04-24T21:56:34.343Z,41.30
2018-04-24T21:59:02.698Z,40.27
2018-04-24T22:01:31.049Z,21.00
2018-04-24T22:04:00.292Z,30.80
2018-04-24T22:06:28.650Z,34.77
2018-04-24T22:08:57.060Z,27.83
2018-04-24T22:11:25.744Z,28.37
2018-04-24T22:13:54.097Z,36.03
2018-04-24T22:16:23.179Z,32.10
2018-04-24T22:18:52.353Z,33.50
2018-04-24T22:21:20.709Z,33.20
2018-04-24T22:23:49.039Z,29.37
2018-04-24T22:26:18.175Z,44.73
2018-04-24T22:28:46.520Z,28.23
2018-04-24T22:31:14.892Z,41.53
2018-04-24T22:33:44.068Z,34.37
2018-04-24T22:36:12.455Z,31.43
2018-04-24T22:38:41.599Z,30.27
2018-04-24T22:41:10.107Z,39.20
2018-04-24T22:43:38.465Z,31.97
2018-04-24T22:46:06.800Z,42.43
2018-04-24T22:48:35.931Z,29.53
2018-04-24T22:51:04.563Z,33.30
2018-04-24T22:53:32.911Z,37.57
2018-04-24T22:56:01.500Z,42.43
2018-04-24T22:58:29.820Z,34.73
2018-04-24T23:00:58.140Z,31.20
2018-04-24T23:03:26.523Z,33.60
2018-04-24T23:05:54.880Z,29.23
2018-04-24T23:08:23.261Z,42.07
2018-04-24T23:11:09.511Z,38.53
2018-04-24T23:13:55.399Z,38.40
2018-04-24T23:16:41.224Z,34.17
2018-04-24T23:19:27.901Z,34.77
2018-04-24T23:21:55.524Z,45.80
2018-04-24T23:24:23.877Z,40.37
2018-04-24T23:26:52.955Z,43.03
2018-04-24T23:29:21.957Z,50.63
2018-04-24T23:31:50.313Z,44.13
2018-04-24T23:34:18.636Z,43.23
2018-04-24T23:36:46.985Z,38.30
2018-04-24T23:39:15.326Z,49.10
2018-04-24T23:41:43.659Z,42.57
2018-04-24T23:44:12.020Z,47.97
2018-04-24T23:46:40.377Z,49.00
2018-04-24T23:49:08.700Z,50.30
2018-04-24T23:51:37.256Z,50.73
2018-04-24T23:54:05.602Z,65.87
2018-04-24T23:56:35.639Z,56.07
2018-04-24T23:59:04.000Z,54.20
